TFM - Tactical Decision Aid
ID: Runway Winds: CIG/VIS Threshold:

KIAH - Houston/Bush Intl, TX, US

Updated at: 1246 UTC 15 Jul 2020
Latest TAF at: 1120 UTC 15 Jul 2020

TAF Board

Time1153Z 15/13Z 15/14Z 15/15Z 15/16Z 15/17Z 15/18Z 15/19Z 15/20Z 15/21Z 15/22Z 15/23Z 16/00Z 16/01Z>>
Type OBS PRVL PRVL PRVL PRVL PRVL PRVL PRVL PRVL PRVL PRVL PRVL PRVL PRVL
VIS 10 >6 >6 >6 >6 >6 >6 >6 >6 >6 >6 >6 >6 >6
CIG 200 30 30 90 90 90 -- -- -- -- -- -- -- --
Cover BKN BKN BKN BKN BKN BKN SCT SCT SCT SCT SCT SCT SCT SCT
FltCat VFR MVFR MVFR VFR VFR VFR VFR VFR VFR VFR VFR VFR VFR VFR
WX -- -- -- -- -- -- -- -- -- -- -- -- -- --
WDir VRB 200 200 210 210 210 180 180 180 180 180 180 180 180
WSpd 4 6 6 7 7 7 6 6 6 6 6 6 6 6
WGst -- -- -- -- -- -- -- -- -- -- -- -- -- --

TDA Impact Legend

  None Marginal Slight Moderate High
Visibility (sm) >5 3≤X≤5 1≤X<3 0.5≤X<1 <0.5
Ceiling (100 ft) >30 10≤X≤30 4≤X<10 2≤X<4 <2
Wind Speed (kt) <15 15≤X<25 25≤X<30 ≥30
Wind Gust (kt) <15 15≤X<25 25≤X<35 ≥35
Weather No Wx Reported VCTS -TS,-FZRA TS,FZRA +TS,+FZRA
TAF
KIAH 151120Z 1512/1618 19005KT P6SM FEW015 SCT025
  FM151300 20006KT P6SM FEW020 BKN030
  FM151500 21007KT P6SM BKN090
  FM151800 18006KT P6SM SCT250
  FM161000 VRB04KT P6SM SCT020 BKN250


METAR
KIAH 151153Z VRB04KT 10SM FEW015 BKN200 27/24 A2998 RMK AO2 SLP149 T02720244 10278 20272 53010
KIAH 151053Z VRB06KT 10SM FEW015 SCT030 SCT180 28/24 A2996 RMK AO2 SLP144 T02780244
KIAH 150953Z 19007KT 10SM FEW018 FEW180 28/24 A2995 RMK AO2 SLP141 T02780244

Radar Display
Forecast Discussion